EWG2040 EDDS-EDDH
Flight info
| Callsign | EWG2040 |
|---|---|
| Flight time | 0h 55m |
| Altitude | 35000 |
| Route | OKIBA4B/25 OKIBA N851 RIMKI Z99 LOHRE DCT MASEK DCT ELNAT P605 NOLGO NOLGO6A |
| Aircraft | A20N/M-SDE2E3FGHIRWXY/LB1 |
Departure
| Time | 2026-05-05 17:17 |
|---|---|
| Airport | Stuttgart Airport (EDDS) |
Arrival
| Time | 2026-05-05 18:13 |
|---|---|
| Airport | Hamburg Helmut Schmidt Airport (EDDH) |
| Time | Latitude | Longitude | Altitude | Speed | Heading |
|---|---|---|---|---|---|
| 2026-05-05 16:47 | 48.68713 | 9.19277 | 1290 ft | 0 kts | 164° |
| 2026-05-05 17:06 | 48.68712 | 9.19278 | 1285 ft | 1 kts | 164° |
| 2026-05-05 17:06 | 48.68687 | 9.19289 | 1288 ft | 7 kts | 164° |
| 2026-05-05 17:07 | 48.68664 | 9.19349 | 1285 ft | 9 kts | 79° |
| 2026-05-05 17:07 | 48.68683 | 9.19457 | 1285 ft | 12 kts | 72° |
| 2026-05-05 17:07 | 48.68712 | 9.19594 | 1286 ft | 15 kts | 74° |
| 2026-05-05 17:07 | 48.68741 | 9.19751 | 1286 ft | 17 kts | 69° |
| 2026-05-05 17:08 | 48.68790 | 9.19916 | 1287 ft | 18 kts | 45° |
| 2026-05-05 17:08 | 48.68847 | 9.20086 | 1289 ft | 20 kts | 77° |
| 2026-05-05 17:08 | 48.68889 | 9.20293 | 1286 ft | 21 kts | 74° |
| 2026-05-05 17:08 | 48.68931 | 9.20519 | 1286 ft | 23 kts | 73° |
| 2026-05-05 17:09 | 48.68977 | 9.20761 | 1286 ft | 25 kts | 73° |
| 2026-05-05 17:09 | 48.69025 | 9.21018 | 1287 ft | 26 kts | 74° |
| 2026-05-05 17:09 | 48.69076 | 9.21287 | 1289 ft | 27 kts | 75° |
| 2026-05-05 17:09 | 48.69127 | 9.21569 | 1286 ft | 28 kts | 72° |
| 2026-05-05 17:10 | 48.69184 | 9.21855 | 1288 ft | 27 kts | 73° |
| 2026-05-05 17:10 | 48.69239 | 9.22139 | 1286 ft | 28 kts | 77° |
| 2026-05-05 17:10 | 48.69291 | 9.22416 | 1287 ft | 28 kts | 73° |
| 2026-05-05 17:10 | 48.69344 | 9.22705 | 1286 ft | 29 kts | 73° |
| 2026-05-05 17:11 | 48.69401 | 9.23002 | 1287 ft | 30 kts | 75° |
| 2026-05-05 17:11 | 48.69460 | 9.23307 | 1285 ft | 30 kts | 74° |
| 2026-05-05 17:11 | 48.69519 | 9.23620 | 1285 ft | 31 kts | 73° |
| 2026-05-05 17:11 | 48.69570 | 9.23892 | 1289 ft | 24 kts | 74° |
| 2026-05-05 17:12 | 48.69611 | 9.24109 | 1289 ft | 14 kts | 77° |
| 2026-05-05 17:12 | 48.69598 | 9.24188 | 1285 ft | 0 kts | 116° |
| 2026-05-05 17:13 | 48.69596 | 9.24196 | 1285 ft | 3 kts | 116° |
| 2026-05-05 17:13 | 48.69576 | 9.24253 | 1287 ft | 9 kts | 120° |
| 2026-05-05 17:13 | 48.69544 | 9.24296 | 1285 ft | 0 kts | 159° |
| 2026-05-05 17:14 | 48.69539 | 9.24299 | 1285 ft | 3 kts | 159° |
| 2026-05-05 17:14 | 48.69505 | 9.24316 | 1286 ft | 7 kts | 163° |
| 2026-05-05 17:14 | 48.69499 | 9.24319 | 1287 ft | 0 kts | 165° |
| 2026-05-05 17:15 | 48.69488 | 9.24323 | 1289 ft | 4 kts | 165° |
| 2026-05-05 17:15 | 48.69437 | 9.24342 | 1286 ft | 11 kts | 167° |
| 2026-05-05 17:16 | 48.69400 | 9.24348 | 1289 ft | 2 kts | 192° |
| 2026-05-05 17:16 | 48.69392 | 9.24325 | 1285 ft | 0 kts | 245° |
| 2026-05-05 17:16 | 48.69392 | 9.24324 | 1285 ft | 1 kts | 245° |
| 2026-05-05 17:16 | 48.69353 | 9.24141 | 1286 ft | 50 kts | 254° |
| 2026-05-05 17:17 | 48.69190 | 9.23272 | 1287 ft | 117 kts | 253° |
| 2026-05-05 17:17 | 48.68920 | 9.21842 | 1317 ft | 162 kts | 254° |
| 2026-05-05 17:17 | 48.68623 | 9.20273 | 1963 ft | 156 kts | 258° |
| 2026-05-05 17:17 | 48.68366 | 9.18660 | 2545 ft | 159 kts | 260° |
| 2026-05-05 17:18 | 48.68093 | 9.17019 | 3060 ft | 167 kts | 255° |
| 2026-05-05 17:18 | 48.67730 | 9.15267 | 3406 ft | 185 kts | 255° |
| 2026-05-05 17:18 | 48.67323 | 9.13307 | 3756 ft | 208 kts | 253° |
| 2026-05-05 17:18 | 48.66895 | 9.11086 | 4231 ft | 230 kts | 263° |
| 2026-05-05 17:19 | 48.67173 | 9.08627 | 4924 ft | 246 kts | 296° |
| 2026-05-05 17:19 | 48.68271 | 9.06599 | 5878 ft | 261 kts | 321° |
| 2026-05-05 17:19 | 48.69956 | 9.05494 | 6865 ft | 268 kts | 349° |
| 2026-05-05 17:19 | 48.71863 | 9.05197 | 7637 ft | 288 kts | 351° |
| 2026-05-05 17:20 | 48.73851 | 9.04508 | 8542 ft | 294 kts | 343° |
| 2026-05-05 17:20 | 48.75208 | 9.04179 | 9112 ft | 301 kts | 358° |
| 2026-05-05 17:20 | 48.77279 | 9.04719 | 9574 ft | 307 kts | 22° |
| 2026-05-05 17:20 | 48.79517 | 9.07284 | 9800 ft | 307 kts | 53° |
| 2026-05-05 17:21 | 48.80326 | 9.09040 | 9823 ft | 306 kts | 60° |
| 2026-05-05 17:21 | 48.81564 | 9.11666 | 9819 ft | 309 kts | 45° |
| 2026-05-05 17:21 | 48.83384 | 9.13430 | 9918 ft | 319 kts | 20° |
| 2026-05-05 17:22 | 48.88013 | 9.14868 | 10888 ft | 354 kts | 8° |
| 2026-05-05 17:22 | 48.90475 | 9.15465 | 11877 ft | 358 kts | 8° |
| 2026-05-05 17:22 | 48.92951 | 9.16096 | 12841 ft | 362 kts | 8° |
| 2026-05-05 17:22 | 48.95450 | 9.16763 | 13770 ft | 367 kts | 8° |
| 2026-05-05 17:23 | 48.97957 | 9.17453 | 14585 ft | 372 kts | 9° |
| 2026-05-05 17:23 | 49.00516 | 9.18166 | 15407 ft | 377 kts | 9° |
| 2026-05-05 17:23 | 49.03115 | 9.18885 | 16212 ft | 381 kts | 9° |
| 2026-05-05 17:23 | 49.05738 | 9.19617 | 17013 ft | 386 kts | 9° |
| 2026-05-05 17:24 | 49.08412 | 9.20374 | 17817 ft | 391 kts | 9° |
| 2026-05-05 17:24 | 49.11110 | 9.21139 | 18534 ft | 396 kts | 9° |
| 2026-05-05 17:24 | 49.13841 | 9.21913 | 19232 ft | 400 kts | 9° |
| 2026-05-05 17:24 | 49.16598 | 9.22689 | 19921 ft | 405 kts | 9° |
| 2026-05-05 17:25 | 49.19386 | 9.23464 | 20601 ft | 409 kts | 9° |
| 2026-05-05 17:25 | 49.21250 | 9.23982 | 21054 ft | 412 kts | 9° |
| 2026-05-05 17:25 | 49.25011 | 9.25035 | 21954 ft | 417 kts | 9° |
| 2026-05-05 17:25 | 49.27887 | 9.25846 | 22615 ft | 422 kts | 9° |
| 2026-05-05 17:26 | 49.30793 | 9.26670 | 23295 ft | 426 kts | 9° |
| 2026-05-05 17:26 | 49.33687 | 9.27494 | 23857 ft | 429 kts | 9° |
| 2026-05-05 17:26 | 49.36640 | 9.28338 | 24415 ft | 433 kts | 9° |
| 2026-05-05 17:26 | 49.39616 | 9.29189 | 24951 ft | 436 kts | 9° |
| 2026-05-05 17:27 | 49.42611 | 9.30045 | 25480 ft | 440 kts | 9° |
| 2026-05-05 17:27 | 49.45641 | 9.30914 | 25991 ft | 444 kts | 9° |
| 2026-05-05 17:27 | 49.48693 | 9.31790 | 26486 ft | 448 kts | 9° |
| 2026-05-05 17:27 | 49.51768 | 9.32675 | 26974 ft | 451 kts | 9° |
| 2026-05-05 17:28 | 49.54865 | 9.33566 | 27447 ft | 455 kts | 9° |
| 2026-05-05 17:28 | 49.57994 | 9.34467 | 27908 ft | 458 kts | 9° |
| 2026-05-05 17:28 | 49.61151 | 9.35377 | 28351 ft | 462 kts | 9° |
| 2026-05-05 17:28 | 49.64319 | 9.36292 | 28786 ft | 465 kts | 9° |
| 2026-05-05 17:29 | 49.67475 | 9.37203 | 29196 ft | 468 kts | 9° |
| 2026-05-05 17:29 | 49.70699 | 9.38135 | 29610 ft | 472 kts | 9° |
| 2026-05-05 17:29 | 49.73932 | 9.39072 | 29999 ft | 475 kts | 9° |
| 2026-05-05 17:29 | 49.77190 | 9.40017 | 30371 ft | 477 kts | 9° |
| 2026-05-05 17:30 | 49.80474 | 9.40970 | 30771 ft | 479 kts | 9° |
| 2026-05-05 17:30 | 49.83773 | 9.41929 | 31188 ft | 480 kts | 10° |
| 2026-05-05 17:30 | 49.87017 | 9.42873 | 31692 ft | 480 kts | 10° |
| 2026-05-05 17:30 | 49.90288 | 9.43826 | 32177 ft | 479 kts | 10° |
| 2026-05-05 17:31 | 49.93562 | 9.44781 | 32682 ft | 477 kts | 10° |
| 2026-05-05 17:31 | 49.96823 | 9.45737 | 33153 ft | 477 kts | 10° |
| 2026-05-05 17:31 | 50.00071 | 9.46690 | 33618 ft | 476 kts | 10° |
| 2026-05-05 17:31 | 50.03334 | 9.47645 | 34039 ft | 475 kts | 10° |
| 2026-05-05 17:32 | 50.06581 | 9.48577 | 34407 ft | 474 kts | 8° |
| 2026-05-05 17:32 | 50.09864 | 9.49162 | 34697 ft | 473 kts | 5° |
| 2026-05-05 17:32 | 50.13147 | 9.49702 | 34796 ft | 472 kts | 5° |
| 2026-05-05 17:33 | 50.19636 | 9.50792 | 34813 ft | 471 kts | 5° |
| 2026-05-05 17:33 | 50.26171 | 9.51906 | 34812 ft | 472 kts | 5° |
| 2026-05-05 17:34 | 50.32714 | 9.53029 | 34807 ft | 472 kts | 5° |
| 2026-05-05 17:34 | 50.39228 | 9.54116 | 35040 ft | 474 kts | 5° |
| 2026-05-05 17:34 | 50.42520 | 9.54661 | 35392 ft | 474 kts | 5° |
| 2026-05-05 17:35 | 50.45805 | 9.55210 | 35702 ft | 473 kts | 4° |
| 2026-05-05 17:35 | 50.52320 | 9.56310 | 35802 ft | 472 kts | 4° |
| 2026-05-05 17:36 | 50.58870 | 9.57424 | 35800 ft | 472 kts | 5° |
| 2026-05-05 17:36 | 50.65410 | 9.58554 | 35799 ft | 472 kts | 5° |
| 2026-05-05 17:37 | 50.71948 | 9.59684 | 35798 ft | 473 kts | 5° |
| 2026-05-05 17:37 | 50.78488 | 9.60894 | 35795 ft | 473 kts | 5° |
| 2026-05-05 17:38 | 50.84992 | 9.62180 | 35795 ft | 473 kts | 5° |
| 2026-05-05 17:38 | 50.91544 | 9.63454 | 35792 ft | 473 kts | 5° |
| 2026-05-05 17:39 | 50.98113 | 9.64719 | 35803 ft | 479 kts | 6° |
| 2026-05-05 17:39 | 51.04744 | 9.66017 | 35803 ft | 479 kts | 6° |
| 2026-05-05 17:40 | 51.11342 | 9.67330 | 35801 ft | 479 kts | 7° |
| 2026-05-05 17:40 | 51.17977 | 9.68656 | 35799 ft | 480 kts | 6° |
| 2026-05-05 17:41 | 51.24587 | 9.69883 | 35801 ft | 479 kts | 5° |
| 2026-05-05 17:41 | 51.31233 | 9.70916 | 35802 ft | 479 kts | 4° |
| 2026-05-05 17:42 | 51.37881 | 9.71966 | 35798 ft | 479 kts | 4° |
| 2026-05-05 17:42 | 51.44510 | 9.73037 | 35796 ft | 478 kts | 4° |
| 2026-05-05 17:43 | 51.51084 | 9.74161 | 35800 ft | 478 kts | 5° |
| 2026-05-05 17:43 | 51.57703 | 9.75435 | 35804 ft | 478 kts | 5° |
| 2026-05-05 17:44 | 51.64321 | 9.76703 | 35814 ft | 478 kts | 5° |
| 2026-05-05 17:44 | 51.70941 | 9.77961 | 35821 ft | 478 kts | 5° |
| 2026-05-05 17:45 | 51.77515 | 9.79207 | 35828 ft | 478 kts | 4° |
| 2026-05-05 17:45 | 51.84140 | 9.80448 | 35831 ft | 479 kts | 4° |
| 2026-05-05 17:46 | 51.90724 | 9.81726 | 35845 ft | 479 kts | 5° |
| 2026-05-05 17:46 | 51.97367 | 9.83013 | 35841 ft | 479 kts | 4° |
| 2026-05-05 17:47 | 52.03991 | 9.84282 | 35849 ft | 479 kts | 4° |
| 2026-05-05 17:47 | 52.10576 | 9.85580 | 35850 ft | 479 kts | 4° |
| 2026-05-05 17:48 | 52.17201 | 9.86891 | 35854 ft | 479 kts | 4° |
| 2026-05-05 17:48 | 52.23823 | 9.88218 | 35862 ft | 479 kts | 6° |
| 2026-05-05 17:49 | 52.30333 | 9.90776 | 35867 ft | 482 kts | 13° |
| 2026-05-05 17:49 | 52.36772 | 9.93583 | 35697 ft | 482 kts | 12° |
| 2026-05-05 17:49 | 52.40016 | 9.95003 | 35444 ft | 481 kts | 13° |
| 2026-05-05 17:50 | 52.43251 | 9.96427 | 35196 ft | 482 kts | 13° |
| 2026-05-05 17:50 | 52.46514 | 9.97869 | 34945 ft | 483 kts | 13° |
| 2026-05-05 17:50 | 52.49765 | 9.99308 | 34700 ft | 484 kts | 13° |
| 2026-05-05 17:50 | 52.53033 | 10.00756 | 34192 ft | 487 kts | 13° |
| 2026-05-05 17:51 | 52.56279 | 10.02193 | 33352 ft | 492 kts | 13° |
| 2026-05-05 17:51 | 52.59598 | 10.03666 | 32405 ft | 494 kts | 13° |
| 2026-05-05 17:51 | 52.62922 | 10.05149 | 31563 ft | 494 kts | 13° |
| 2026-05-05 17:51 | 52.66223 | 10.06631 | 30944 ft | 489 kts | 13° |
| 2026-05-05 17:52 | 52.69468 | 10.08092 | 30706 ft | 475 kts | 13° |
| 2026-05-05 17:52 | 52.72605 | 10.09505 | 30550 ft | 460 kts | 13° |
| 2026-05-05 17:52 | 52.75670 | 10.10866 | 30153 ft | 451 kts | 10° |
| 2026-05-05 17:52 | 52.78739 | 10.11715 | 29620 ft | 443 kts | 2° |
| 2026-05-05 17:53 | 52.81777 | 10.11669 | 29015 ft | 432 kts | 347° |
| 2026-05-05 17:53 | 52.84608 | 10.10416 | 28433 ft | 420 kts | 332° |
| 2026-05-05 17:53 | 52.87139 | 10.08160 | 27848 ft | 411 kts | 324° |
| 2026-05-05 17:53 | 52.89578 | 10.05716 | 27268 ft | 407 kts | 324° |
| 2026-05-05 17:54 | 52.91988 | 10.03285 | 26647 ft | 402 kts | 324° |
| 2026-05-05 17:54 | 52.94369 | 10.00869 | 25843 ft | 397 kts | 324° |
| 2026-05-05 17:54 | 52.96699 | 9.98481 | 25056 ft | 394 kts | 324° |
| 2026-05-05 17:54 | 52.99014 | 9.96088 | 24282 ft | 389 kts | 324° |
| 2026-05-05 17:55 | 53.01301 | 9.93699 | 23541 ft | 385 kts | 324° |
| 2026-05-05 17:55 | 53.03525 | 9.91352 | 22717 ft | 381 kts | 324° |
| 2026-05-05 17:55 | 53.05747 | 9.88984 | 21931 ft | 377 kts | 324° |
| 2026-05-05 17:55 | 53.07937 | 9.86630 | 21162 ft | 371 kts | 324° |
| 2026-05-05 17:56 | 53.10088 | 9.84296 | 20417 ft | 367 kts | 324° |
| 2026-05-05 17:56 | 53.12223 | 9.81962 | 20036 ft | 364 kts | 324° |
| 2026-05-05 17:56 | 53.14375 | 9.79739 | 19906 ft | 365 kts | 329° |
| 2026-05-05 17:56 | 53.16676 | 9.77917 | 19883 ft | 367 kts | 334° |
| 2026-05-05 17:57 | 53.18997 | 9.76230 | 19882 ft | 367 kts | 334° |
| 2026-05-05 17:57 | 53.21336 | 9.74535 | 19761 ft | 365 kts | 334° |
| 2026-05-05 17:57 | 53.23657 | 9.72854 | 19419 ft | 363 kts | 334° |
| 2026-05-05 17:57 | 53.25960 | 9.71177 | 18949 ft | 360 kts | 334° |
| 2026-05-05 17:58 | 53.28250 | 9.69502 | 18496 ft | 357 kts | 334° |
| 2026-05-05 17:58 | 53.30518 | 9.67831 | 18021 ft | 355 kts | 334° |
| 2026-05-05 17:58 | 53.32766 | 9.66168 | 17488 ft | 352 kts | 334° |
| 2026-05-05 17:58 | 53.34997 | 9.64532 | 17001 ft | 349 kts | 336° |
| 2026-05-05 17:59 | 53.36844 | 9.63747 | 16606 ft | 349 kts | 349° |
| 2026-05-05 17:59 | 53.39242 | 9.63714 | 16099 ft | 350 kts | 9° |
| 2026-05-05 17:59 | 53.41518 | 9.65135 | 15599 ft | 350 kts | 31° |
| 2026-05-05 17:59 | 53.43326 | 9.67841 | 15093 ft | 350 kts | 53° |
| 2026-05-05 18:00 | 53.44414 | 9.71448 | 14628 ft | 347 kts | 75° |
| 2026-05-05 18:00 | 53.44797 | 9.75437 | 14162 ft | 344 kts | 84° |
| 2026-05-05 18:00 | 53.45071 | 9.79413 | 13713 ft | 342 kts | 84° |
| 2026-05-05 18:00 | 53.45315 | 9.83376 | 13214 ft | 339 kts | 90° |
| 2026-05-05 18:01 | 53.44934 | 9.87230 | 12713 ft | 334 kts | 112° |
| 2026-05-05 18:01 | 53.43740 | 9.90460 | 12222 ft | 328 kts | 135° |
| 2026-05-05 18:01 | 53.41903 | 9.92646 | 11730 ft | 321 kts | 159° |
| 2026-05-05 18:01 | 53.39786 | 9.93337 | 11533 ft | 302 kts | 182° |
| 2026-05-05 18:02 | 53.37735 | 9.93248 | 11157 ft | 290 kts | 184° |
| 2026-05-05 18:02 | 53.35726 | 9.93130 | 10590 ft | 287 kts | 184° |
| 2026-05-05 18:02 | 53.33762 | 9.93015 | 10018 ft | 284 kts | 184° |
| 2026-05-05 18:02 | 53.31817 | 9.92624 | 9386 ft | 279 kts | 200° |
| 2026-05-05 18:03 | 53.30181 | 9.90963 | 8710 ft | 275 kts | 227° |
| 2026-05-05 18:03 | 53.29198 | 9.88279 | 8040 ft | 272 kts | 253° |
| 2026-05-05 18:03 | 53.29010 | 9.86212 | 7582 ft | 273 kts | 271° |
| 2026-05-05 18:03 | 53.29476 | 9.83163 | 6926 ft | 273 kts | 299° |
| 2026-05-05 18:04 | 53.31239 | 9.80209 | 6412 ft | 269 kts | 324° |
| 2026-05-05 18:04 | 53.32721 | 9.78414 | 6304 ft | 257 kts | 324° |
| 2026-05-05 18:04 | 53.33666 | 9.77266 | 6235 ft | 249 kts | 324° |
| 2026-05-05 18:04 | 53.35035 | 9.75599 | 6041 ft | 239 kts | 324° |
| 2026-05-05 18:05 | 53.36372 | 9.73963 | 5637 ft | 237 kts | 324° |
| 2026-05-05 18:05 | 53.37700 | 9.72327 | 5273 ft | 235 kts | 324° |
| 2026-05-05 18:05 | 53.38997 | 9.70716 | 5017 ft | 229 kts | 324° |
| 2026-05-05 18:05 | 53.40258 | 9.69138 | 4757 ft | 223 kts | 324° |
| 2026-05-05 18:06 | 53.41475 | 9.67620 | 4525 ft | 211 kts | 329° |
| 2026-05-05 18:06 | 53.42347 | 9.67032 | 4385 ft | 198 kts | 356° |
| 2026-05-05 18:06 | 53.43933 | 9.67842 | 4245 ft | 172 kts | 31° |
| 2026-05-05 18:06 | 53.44935 | 9.68880 | 4060 ft | 169 kts | 33° |
| 2026-05-05 18:07 | 53.45925 | 9.69984 | 3898 ft | 172 kts | 35° |
| 2026-05-05 18:07 | 53.46899 | 9.71142 | 3704 ft | 170 kts | 36° |
| 2026-05-05 18:07 | 53.47837 | 9.72319 | 3634 ft | 168 kts | 38° |
| 2026-05-05 18:07 | 53.48762 | 9.73538 | 3553 ft | 170 kts | 39° |
| 2026-05-05 18:08 | 53.49669 | 9.74791 | 3478 ft | 168 kts | 40° |
| 2026-05-05 18:08 | 53.50553 | 9.76043 | 3356 ft | 169 kts | 37° |
| 2026-05-05 18:08 | 53.51527 | 9.77136 | 3216 ft | 168 kts | 33° |
| 2026-05-05 18:08 | 53.52501 | 9.78197 | 3024 ft | 166 kts | 35° |
| 2026-05-05 18:09 | 53.53395 | 9.79417 | 2806 ft | 163 kts | 43° |
| 2026-05-05 18:09 | 53.54151 | 9.80829 | 2578 ft | 163 kts | 51° |
| 2026-05-05 18:09 | 53.54819 | 9.82314 | 2371 ft | 153 kts | 50° |
| 2026-05-05 18:09 | 53.55494 | 9.83609 | 2098 ft | 141 kts | 49° |
| 2026-05-05 18:10 | 53.56100 | 9.84855 | 1865 ft | 137 kts | 51° |
| 2026-05-05 18:10 | 53.56715 | 9.86085 | 1739 ft | 136 kts | 49° |
| 2026-05-05 18:10 | 53.57319 | 9.87280 | 1591 ft | 134 kts | 51° |
| 2026-05-05 18:10 | 53.57896 | 9.88478 | 1420 ft | 132 kts | 51° |
| 2026-05-05 18:11 | 53.58488 | 9.89648 | 1210 ft | 131 kts | 51° |
| 2026-05-05 18:11 | 53.59074 | 9.90826 | 997 ft | 130 kts | 50° |
| 2026-05-05 18:11 | 53.59666 | 9.91993 | 847 ft | 132 kts | 51° |
| 2026-05-05 18:11 | 53.60260 | 9.93210 | 669 ft | 136 kts | 51° |
| 2026-05-05 18:12 | 53.60870 | 9.94440 | 459 ft | 136 kts | 51° |
| 2026-05-05 18:12 | 53.61472 | 9.95654 | 256 ft | 133 kts | 52° |
| 2026-05-05 18:12 | 53.62067 | 9.96861 | 87 ft | 133 kts | 51° |
| 2026-05-05 18:12 | 53.62608 | 9.97955 | 49 ft | 98 kts | 50° |
| 2026-05-05 18:13 | 53.62916 | 9.98579 | 51 ft | 41 kts | 50° |
| 2026-05-05 18:13 | 53.62979 | 9.98706 | 51 ft | 1 kts | 50° |
| 2026-05-05 18:13 | 53.63040 | 9.98834 | 50 ft | 25 kts | 55° |
| 2026-05-05 18:13 | 53.63090 | 9.99094 | 52 ft | 17 kts | 88° |
| 2026-05-05 18:14 | 53.63084 | 9.99278 | 51 ft | 12 kts | 94° |
| 2026-05-05 18:14 | 53.63088 | 9.99356 | 51 ft | 0 kts | 77° |
| 2026-05-05 18:16 | 53.63088 | 9.99360 | 51 ft | 2 kts | 76° |
| 2026-05-05 18:16 | 53.63103 | 9.99413 | 50 ft | 9 kts | 57° |
| 2026-05-05 18:16 | 53.63153 | 9.99528 | 49 ft | 15 kts | 51° |
| 2026-05-05 18:16 | 53.63222 | 9.99677 | 51 ft | 14 kts | 65° |
| 2026-05-05 18:17 | 53.63173 | 9.99805 | 51 ft | 16 kts | 150° |
| 2026-05-05 18:17 | 53.63062 | 9.99898 | 51 ft | 19 kts | 154° |
| 2026-05-05 18:17 | 53.62941 | 10.00009 | 51 ft | 19 kts | 151° |
| 2026-05-05 18:17 | 53.62933 | 10.00120 | 51 ft | 13 kts | 23° |
| 2026-05-05 18:18 | 53.63022 | 10.00214 | 51 ft | 17 kts | 34° |
| 2026-05-05 18:18 | 53.63077 | 10.00314 | 51 ft | 11 kts | 90° |
| 2026-05-05 18:18 | 53.63074 | 10.00384 | 51 ft | 0 kts | 95° |